Snider, Montana
Current Conditions -  °F | °C
As of 1:32 PM on Friday 21 Nov 2014 (Local Time) from KMLP Reporting Station
Moderate Fog Moderate Fog  
Wind Chill: 26°   Ceiling: 100
Heat Index: 32°   Visibility: 0.25mi
Dew Point: 29°   Wind: 7mph
Humidity: 88%   Direction: 180°S
Pressure: 29.78"   Gusts: NA
Location:  47.6853°N, 115.247°W
Report Text: KMLP 212032Z AUTO 18006KT 1/4SM FG VV001 00/M02 A2978 RMK AO2 P0001 T00001017
Loading
Personal Weather Stations






























Interactive Weather Map New forecast layout! Learn more

10-Day Weather Forecast

Advertisements
Track Severe Weather on mobile